sensor_id;sensor_type;location;lat;lon;timestamp;P1;durP1;ratioP1;P2;durP2;ratioP2
35757;SDS011;21879;50.110;18.900;2022-12-18T00:00:06;36.50;;;16.50;;
35757;SDS011;21879;50.110;18.900;2022-12-18T00:10:55;36.70;;;19.10;;
35757;SDS011;21879;50.110;18.900;2022-12-18T00:21:31;31.80;;;15.80;;
35757;SDS011;21879;50.110;18.900;2022-12-18T00:31:59;37.70;;;18.80;;
35757;SDS011;21879;50.110;18.900;2022-12-18T00:42:27;33.80;;;16.30;;
35757;SDS011;21879;50.110;18.900;2022-12-18T00:53:12;32.30;;;17.30;;
35757;SDS011;21879;50.110;18.900;2022-12-18T01:03:40;38.00;;;19.80;;
35757;SDS011;21879;50.110;18.900;2022-12-18T01:14:09;29.30;;;14.50;;
35757;SDS011;21879;50.110;18.900;2022-12-18T01:24:37;38.10;;;16.80;;
35757;SDS011;21879;50.110;18.900;2022-12-18T01:35:06;32.50;;;14.90;;
35757;SDS011;21879;50.110;18.900;2022-12-18T01:45:34;28.40;;;15.70;;
35757;SDS011;21879;50.110;18.900;2022-12-18T01:56:01;39.00;;;19.10;;
35757;SDS011;21879;50.110;18.900;2022-12-18T02:06:32;33.80;;;17.40;;
35757;SDS011;21879;50.110;18.900;2022-12-18T02:17:06;33.00;;;16.60;;
35757;SDS011;21879;50.110;18.900;2022-12-18T02:27:37;33.80;;;18.20;;
35757;SDS011;21879;50.110;18.900;2022-12-18T02:38:06;32.40;;;16.40;;
35757;SDS011;21879;50.110;18.900;2022-12-18T02:48:34;38.40;;;17.90;;
35757;SDS011;21879;50.110;18.900;2022-12-18T03:09:32;33.90;;;17.00;;
35757;SDS011;21879;50.110;18.900;2022-12-18T03:20:04;39.90;;;22.30;;
35757;SDS011;21879;50.110;18.900;2022-12-18T03:30:36;32.40;;;15.40;;
35757;SDS011;21879;50.110;18.900;2022-12-18T03:41:06;34.10;;;17.60;;
35757;SDS011;21879;50.110;18.900;2022-12-18T03:51:43;30.50;;;16.70;;
35757;SDS011;21879;50.110;18.900;2022-12-18T04:02:18;35.00;;;18.60;;
35757;SDS011;21879;50.110;18.900;2022-12-18T04:12:49;45.40;;;29.50;;
35757;SDS011;21879;50.110;18.900;2022-12-18T04:23:21;33.20;;;16.60;;
35757;SDS011;21879;50.110;18.900;2022-12-18T04:33:49;29.40;;;16.00;;
35757;SDS011;21879;50.110;18.900;2022-12-18T04:44:17;33.50;;;18.00;;
35757;SDS011;21879;50.110;18.900;2022-12-18T04:54:45;35.70;;;18.80;;
35757;SDS011;21879;50.110;18.900;2022-12-18T05:05:13;39.90;;;24.60;;
35757;SDS011;21879;50.110;18.900;2022-12-18T05:26:16;30.60;;;18.00;;
35757;SDS011;21879;50.110;18.900;2022-12-18T05:36:45;34.90;;;18.30;;
35757;SDS011;21879;50.110;18.900;2022-12-18T05:47:13;36.40;;;18.90;;
35757;SDS011;21879;50.110;18.900;2022-12-18T05:57:41;38.60;;;20.80;;
35757;SDS011;21879;50.110;18.900;2022-12-18T06:08:09;31.10;;;15.80;;
35757;SDS011;21879;50.110;18.900;2022-12-18T06:29:04;28.40;;;15.50;;
35757;SDS011;21879;50.110;18.900;2022-12-18T06:39:31;25.90;;;15.90;;
35757;SDS011;21879;50.110;18.900;2022-12-18T06:49:59;34.70;;;18.30;;
35757;SDS011;21879;50.110;18.900;2022-12-18T07:00:27;34.00;;;18.70;;
35757;SDS011;21879;50.110;18.900;2022-12-18T07:10:55;34.80;;;16.10;;
35757;SDS011;21879;50.110;18.900;2022-12-18T07:21:23;45.20;;;21.90;;
35757;SDS011;21879;50.110;18.900;2022-12-18T07:31:51;33.00;;;19.30;;
35757;SDS011;21879;50.110;18.900;2022-12-18T07:42:18;34.90;;;18.80;;
35757;SDS011;21879;50.110;18.900;2022-12-18T07:52:59;37.10;;;20.80;;
35757;SDS011;21879;50.110;18.900;2022-12-18T08:03:28;38.20;;;20.40;;
35757;SDS011;21879;50.110;18.900;2022-12-18T08:13:55;29.00;;;17.80;;
35757;SDS011;21879;50.110;18.900;2022-12-18T08:24:23;35.80;;;18.60;;
35757;SDS011;21879;50.110;18.900;2022-12-18T08:34:50;38.30;;;22.30;;
35757;SDS011;21879;50.110;18.900;2022-12-18T08:45:18;40.90;;;22.50;;
35757;SDS011;21879;50.110;18.900;2022-12-18T08:55:47;31.80;;;19.40;;
35757;SDS011;21879;50.110;18.900;2022-12-18T09:06:15;38.50;;;22.70;;
35757;SDS011;21879;50.110;18.900;2022-12-18T09:16:44;27.40;;;15.60;;
35757;SDS011;21879;50.110;18.900;2022-12-18T09:27:12;45.80;;;23.70;;
35757;SDS011;21879;50.110;18.900;2022-12-18T09:37:39;36.90;;;19.50;;
35757;SDS011;21879;50.110;18.900;2022-12-18T09:48:08;36.80;;;21.90;;
35757;SDS011;21879;50.110;18.900;2022-12-18T09:58:42;29.90;;;14.70;;
35757;SDS011;21879;50.110;18.900;2022-12-18T10:09:16;28.80;;;14.40;;
35757;SDS011;21879;50.110;18.900;2022-12-18T10:19:54;31.60;;;14.70;;
35757;SDS011;21879;50.110;18.900;2022-12-18T10:30:25;30.30;;;14.80;;
35757;SDS011;21879;50.110;18.900;2022-12-18T10:40:54;22.90;;;12.60;;
35757;SDS011;21879;50.110;18.900;2022-12-18T10:51:25;30.10;;;15.10;;
35757;SDS011;21879;50.110;18.900;2022-12-18T11:01:55;34.70;;;18.20;;
35757;SDS011;21879;50.110;18.900;2022-12-18T11:12:24;29.30;;;15.60;;
35757;SDS011;21879;50.110;18.900;2022-12-18T11:22:57;30.00;;;15.80;;
35757;SDS011;21879;50.110;18.900;2022-12-18T11:33:27;32.80;;;17.20;;
35757;SDS011;21879;50.110;18.900;2022-12-18T11:43:55;32.20;;;17.70;;
35757;SDS011;21879;50.110;18.900;2022-12-18T11:54:27;31.90;;;16.60;;
35757;SDS011;21879;50.110;18.900;2022-12-18T12:05:00;39.30;;;20.70;;
35757;SDS011;21879;50.110;18.900;2022-12-18T12:15:39;32.10;;;18.70;;
35757;SDS011;21879;50.110;18.900;2022-12-18T12:26:14;29.30;;;14.50;;
35757;SDS011;21879;50.110;18.900;2022-12-18T12:36:52;26.30;;;15.00;;
35757;SDS011;21879;50.110;18.900;2022-12-18T12:47:30;28.00;;;14.80;;
35757;SDS011;21879;50.110;18.900;2022-12-18T12:58:06;28.50;;;17.40;;
35757;SDS011;21879;50.110;18.900;2022-12-18T13:08:53;28.80;;;16.70;;
35757;SDS011;21879;50.110;18.900;2022-12-18T13:19:23;24.30;;;13.30;;
35757;SDS011;21879;50.110;18.900;2022-12-18T13:30:00;31.70;;;14.90;;
35757;SDS011;21879;50.110;18.900;2022-12-18T13:40:59;31.90;;;14.50;;
35757;SDS011;21879;50.110;18.900;2022-12-18T13:51:46;30.10;;;15.20;;
35757;SDS011;21879;50.110;18.900;2022-12-18T14:02:47;31.60;;;18.00;;
35757;SDS011;21879;50.110;18.900;2022-12-18T14:13:46;25.90;;;15.30;;
35757;SDS011;21879;50.110;18.900;2022-12-18T14:24:38;34.00;;;18.40;;
35757;SDS011;21879;50.110;18.900;2022-12-18T14:35:38;35.70;;;17.00;;
35757;SDS011;21879;50.110;18.900;2022-12-18T14:46:28;33.70;;;18.40;;
35757;SDS011;21879;50.110;18.900;2022-12-18T14:57:32;36.50;;;18.70;;
35757;SDS011;21879;50.110;18.900;2022-12-18T15:08:35;36.20;;;19.30;;
35757;SDS011;21879;50.110;18.900;2022-12-18T15:19:42;34.90;;;18.00;;
35757;SDS011;21879;50.110;18.900;2022-12-18T15:30:45;37.90;;;19.40;;
35757;SDS011;21879;50.110;18.900;2022-12-18T15:41:58;37.70;;;18.90;;
35757;SDS011;21879;50.110;18.900;2022-12-18T15:53:10;47.30;;;24.50;;
35757;SDS011;21879;50.110;18.900;2022-12-18T16:04:10;48.00;;;27.10;;
35757;SDS011;21879;50.110;18.900;2022-12-18T16:15:11;40.10;;;21.00;;
35757;SDS011;21879;50.110;18.900;2022-12-18T16:25:59;63.30;;;36.60;;
35757;SDS011;21879;50.110;18.900;2022-12-18T16:36:58;48.50;;;31.20;;
35757;SDS011;21879;50.110;18.900;2022-12-18T16:47:51;44.00;;;25.80;;
35757;SDS011;21879;50.110;18.900;2022-12-18T16:58:18;46.50;;;24.80;;
35757;SDS011;21879;50.110;18.900;2022-12-18T17:08:46;44.60;;;24.50;;
35757;SDS011;21879;50.110;18.900;2022-12-18T17:29:41;42.50;;;24.30;;
35757;SDS011;21879;50.110;18.900;2022-12-18T17:40:12;43.80;;;29.30;;
35757;SDS011;21879;50.110;18.900;2022-12-18T17:50:40;57.30;;;28.20;;
35757;SDS011;21879;50.110;18.900;2022-12-18T18:01:07;46.40;;;27.20;;
35757;SDS011;21879;50.110;18.900;2022-12-18T18:11:38;40.20;;;22.70;;
35757;SDS011;21879;50.110;18.900;2022-12-18T18:22:24;43.20;;;25.00;;
35757;SDS011;21879;50.110;18.900;2022-12-18T18:32:51;45.50;;;28.40;;
35757;SDS011;21879;50.110;18.900;2022-12-18T18:43:19;42.40;;;25.90;;
35757;SDS011;21879;50.110;18.900;2022-12-18T18:53:47;45.20;;;27.70;;
35757;SDS011;21879;50.110;18.900;2022-12-18T19:04:15;41.50;;;24.60;;
35757;SDS011;21879;50.110;18.900;2022-12-18T19:14:43;51.50;;;25.90;;
35757;SDS011;21879;50.110;18.900;2022-12-18T19:25:11;43.20;;;22.50;;
35757;SDS011;21879;50.110;18.900;2022-12-18T19:35:39;38.80;;;23.80;;
35757;SDS011;21879;50.110;18.900;2022-12-18T19:46:06;42.10;;;21.30;;
35757;SDS011;21879;50.110;18.900;2022-12-18T19:56:36;41.30;;;18.40;;
35757;SDS011;21879;50.110;18.900;2022-12-18T20:07:04;37.60;;;21.50;;
35757;SDS011;21879;50.110;18.900;2022-12-18T20:17:32;31.30;;;18.20;;
35757;SDS011;21879;50.110;18.900;2022-12-18T20:28:00;38.40;;;21.20;;
35757;SDS011;21879;50.110;18.900;2022-12-18T20:38:28;32.00;;;16.90;;
35757;SDS011;21879;50.110;18.900;2022-12-18T20:48:57;41.10;;;21.70;;
35757;SDS011;21879;50.110;18.900;2022-12-18T20:59:24;38.40;;;22.60;;
35757;SDS011;21879;50.110;18.900;2022-12-18T21:09:52;39.70;;;21.50;;
35757;SDS011;21879;50.110;18.900;2022-12-18T21:20:20;41.40;;;20.80;;
35757;SDS011;21879;50.110;18.900;2022-12-18T21:30:47;38.50;;;21.60;;
35757;SDS011;21879;50.110;18.900;2022-12-18T21:41:15;38.70;;;21.20;;
35757;SDS011;21879;50.110;18.900;2022-12-18T21:52:02;38.50;;;22.40;;
35757;SDS011;21879;50.110;18.900;2022-12-18T22:02:30;48.40;;;24.20;;
35757;SDS011;21879;50.110;18.900;2022-12-18T22:12:57;45.70;;;22.90;;
35757;SDS011;21879;50.110;18.900;2022-12-18T22:23:25;36.70;;;22.90;;
35757;SDS011;21879;50.110;18.900;2022-12-18T22:33:52;48.80;;;24.60;;
35757;SDS011;21879;50.110;18.900;2022-12-18T22:44:20;39.50;;;23.90;;
35757;SDS011;21879;50.110;18.900;2022-12-18T22:54:47;46.10;;;23.80;;
35757;SDS011;21879;50.110;18.900;2022-12-18T23:05:17;47.80;;;23.00;;
35757;SDS011;21879;50.110;18.900;2022-12-18T23:15:44;49.30;;;21.70;;
35757;SDS011;21879;50.110;18.900;2022-12-18T23:26:14;48.50;;;26.90;;
35757;SDS011;21879;50.110;18.900;2022-12-18T23:36:42;30.70;;;16.90;;
35757;SDS011;21879;50.110;18.900;2022-12-18T23:47:13;37.80;;;21.10;;
35757;SDS011;21879;50.110;18.900;2022-12-18T23:57:40;41.20;;;21.60;;
